createdAt,value
2022-09-23T00:02:08.242Z,67.10
2022-09-23T00:04:34.809Z,66.70
2022-09-23T00:07:01.434Z,67.00
2022-09-23T00:09:28.010Z,66.90
2022-09-23T00:11:55.451Z,67.10
2022-09-23T00:14:22.227Z,67.10
2022-09-23T00:16:48.886Z,66.90
2022-09-23T00:19:15.505Z,66.90
2022-09-23T00:21:42.641Z,66.90
2022-09-23T00:24:09.366Z,67.00
2022-09-23T00:26:35.951Z,67.00
2022-09-23T00:29:02.614Z,67.00
2022-09-23T00:31:29.313Z,67.10
2022-09-23T00:34:00.261Z,66.90
2022-09-23T00:36:27.738Z,67.20
2022-09-23T00:38:54.392Z,67.20
2022-09-23T00:41:21.449Z,67.10
2022-09-23T00:43:49.443Z,67.10
2022-09-23T00:46:21.762Z,67.20
2022-09-23T00:48:50.743Z,67.20
2022-09-23T00:51:20.331Z,67.10
2022-09-23T00:53:48.141Z,67.20
2022-09-23T00:56:15.617Z,67.30
2022-09-23T00:58:44.451Z,67.20
2022-09-23T01:01:12.371Z,67.50
2022-09-23T01:03:39.446Z,67.50
2022-09-23T01:06:06.518Z,67.50
2022-09-23T01:08:33.126Z,67.00
2022-09-23T01:10:59.680Z,67.40
2022-09-23T01:13:46.897Z,67.30
2022-09-23T01:16:32.529Z,65.30
2022-09-23T01:18:59.181Z,65.30
2022-09-23T01:21:35.301Z,67.30
2022-09-23T01:24:04.801Z,67.50
2022-09-23T01:26:40.466Z,65.60
2022-09-23T01:29:10.892Z,65.30
2022-09-23T01:31:40.312Z,65.40
2022-09-23T01:34:24.508Z,65.30
2022-09-23T01:37:03.340Z,65.40
2022-09-23T01:39:42.036Z,65.40
2022-09-23T01:42:16.894Z,65.50
2022-09-23T01:44:48.181Z,65.30
2022-09-23T01:47:18.116Z,67.90
2022-09-23T01:49:52.464Z,67.90
2022-09-23T01:52:32.650Z,65.50
2022-09-23T01:55:05.141Z,65.50
2022-09-23T01:57:40.852Z,65.50
2022-09-23T02:00:12.934Z,65.50
2022-09-23T02:02:49.276Z,65.50
2022-09-23T02:05:24.330Z,67.90
2022-09-23T02:08:03.191Z,65.60
2022-09-23T02:10:36.030Z,65.70
2022-09-23T02:13:05.433Z,68.30
2022-09-23T02:15:35.183Z,68.40
2022-09-23T02:18:04.770Z,68.30
2022-09-23T02:20:34.234Z,68.30
2022-09-23T02:23:04.146Z,68.30
2022-09-23T02:25:53.487Z,65.70
2022-09-23T02:28:25.410Z,65.80
2022-09-23T02:30:56.131Z,68.50
2022-09-23T02:33:37.006Z,68.50
2022-09-23T02:36:11.744Z,65.90
2022-09-23T02:38:42.857Z,66.10
2022-09-23T02:41:09.531Z,68.80
2022-09-23T02:43:36.179Z,68.60
2022-09-23T02:46:04.112Z,68.80
2022-09-23T02:48:33.932Z,69.20
2022-09-23T02:51:02.334Z,69.40
2022-09-23T02:53:30.184Z,69.30
2022-09-23T02:55:56.746Z,69.30
2022-09-23T02:58:23.412Z,69.10
2022-09-23T03:01:08.803Z,69.00
2022-09-23T03:03:35.391Z,66.80
2022-09-23T03:06:05.912Z,69.70
2022-09-23T03:08:38.766Z,70.30
2022-09-23T03:11:10.567Z,70.00
2022-09-23T03:13:43.162Z,66.80
2022-09-23T03:16:10.151Z,67.10
2022-09-23T03:18:46.266Z,70.90
2022-09-23T03:21:18.983Z,69.00
2022-09-23T03:23:46.480Z,67.30
2022-09-23T03:26:21.682Z,70.80
2022-09-23T03:28:50.261Z,66.80
2022-09-23T03:31:17.459Z,69.60
2022-09-23T03:33:49.252Z,69.40
2022-09-23T03:36:36.908Z,66.60
2022-09-23T03:39:08.820Z,69.60
2022-09-23T03:41:38.765Z,66.40
2022-09-23T03:44:08.113Z,70.40
2022-09-23T03:46:36.065Z,69.80
2022-09-23T03:49:10.409Z,69.50
2022-09-23T03:51:39.520Z,66.60
2022-09-23T03:54:09.905Z,69.70
2022-09-23T03:56:37.571Z,69.90
2022-09-23T03:59:04.140Z,70.00
2022-09-23T04:01:30.724Z,69.90
2022-09-23T04:03:57.293Z,69.60
2022-09-23T04:06:23.971Z,69.80
2022-09-23T04:08:50.610Z,69.20
2022-09-23T04:11:17.178Z,70.00
2022-09-23T04:13:43.809Z,69.90
2022-09-23T04:16:10.459Z,70.80
2022-09-23T04:18:37.119Z,70.40
2022-09-23T04:21:03.806Z,68.90
2022-09-23T04:23:30.443Z,68.90
2022-09-23T04:25:57.237Z,69.10
2022-09-23T04:28:23.817Z,68.90
2022-09-23T04:30:50.449Z,69.20
2022-09-23T04:33:17.141Z,69.30
2022-09-23T04:35:43.816Z,69.20
2022-09-23T04:38:11.545Z,69.20
2022-09-23T04:40:38.278Z,67.90
2022-09-23T04:43:05.010Z,65.50
2022-09-23T04:45:31.578Z,64.70
2022-09-23T04:47:58.406Z,65.00
2022-09-23T04:50:26.066Z,64.30
2022-09-23T04:52:53.006Z,65.40
2022-09-23T04:55:19.640Z,65.90
2022-09-23T04:57:46.282Z,68.60
2022-09-23T05:00:15.146Z,67.90
2022-09-23T05:02:48.305Z,68.00
2022-09-23T05:05:18.543Z,66.00
2022-09-23T05:07:45.102Z,69.40
2022-09-23T05:10:11.725Z,69.40
2022-09-23T05:12:38.308Z,69.20
2022-09-23T05:15:05.150Z,69.50
2022-09-23T05:17:31.772Z,68.00
2022-09-23T05:19:58.854Z,69.30
2022-09-23T05:22:26.527Z,69.30
2022-09-23T05:24:53.462Z,70.10
2022-09-23T05:27:20.243Z,69.30
2022-09-23T05:29:47.574Z,69.10
2022-09-23T05:32:15.390Z,69.00
2022-09-23T05:34:42.028Z,68.70
2022-09-23T05:37:08.658Z,68.30
2022-09-23T05:39:35.292Z,68.80
2022-09-23T05:42:01.951Z,69.30
2022-09-23T05:44:28.569Z,68.70
2022-09-23T05:46:55.243Z,68.80
2022-09-23T05:49:29.644Z,68.60
2022-09-23T05:52:08.615Z,68.60
2022-09-23T05:54:35.380Z,69.10
2022-09-23T05:57:04.896Z,69.10
2022-09-23T05:59:31.782Z,69.20
2022-09-23T06:01:59.047Z,69.40
2022-09-23T06:04:25.680Z,69.50
2022-09-23T06:06:53.121Z,70.00
2022-09-23T06:09:19.746Z,68.70
2022-09-23T06:11:46.790Z,69.20
2022-09-23T06:14:14.582Z,69.00
2022-09-23T06:16:41.207Z,68.90
2022-09-23T06:19:07.879Z,68.70
2022-09-23T06:21:35.595Z,68.70
2022-09-23T06:24:03.060Z,69.10
2022-09-23T06:26:33.522Z,68.60
2022-09-23T06:29:01.534Z,68.40
2022-09-23T06:31:28.524Z,68.60
2022-09-23T06:34:11.807Z,68.30
2022-09-23T06:36:43.846Z,68.30
2022-09-23T06:39:11.503Z,68.60
2022-09-23T06:41:38.339Z,68.00
2022-09-23T06:44:04.960Z,68.20
2022-09-23T06:46:31.850Z,68.30
2022-09-23T06:48:59.194Z,67.70
2022-09-23T06:51:25.768Z,67.80
2022-09-23T06:53:52.459Z,67.60
2022-09-23T06:56:21.006Z,67.50
2022-09-23T06:58:47.806Z,67.50
2022-09-23T07:01:16.234Z,67.10
2022-09-23T07:03:43.464Z,67.40
2022-09-23T07:06:10.051Z,66.50
2022-09-23T07:08:37.381Z,66.70
2022-09-23T07:11:05.237Z,66.30
2022-09-23T07:13:37.046Z,65.80
2022-09-23T07:16:04.614Z,66.00
2022-09-23T07:18:36.814Z,64.90
2022-09-23T07:21:17.118Z,64.30
2022-09-23T07:23:44.208Z,62.50
2022-09-23T07:26:10.830Z,65.30
2022-09-23T07:28:38.269Z,65.20
2022-09-23T07:31:12.251Z,65.70
2022-09-23T07:33:40.312Z,62.70
2022-09-23T07:36:08.434Z,66.00
2022-09-23T07:38:35.284Z,65.40
2022-09-23T07:41:05.962Z,66.10
2022-09-23T07:43:32.777Z,62.90
2022-09-23T07:46:04.495Z,65.70
2022-09-23T07:48:34.440Z,66.10
2022-09-23T07:51:06.458Z,65.70
2022-09-23T07:53:33.375Z,66.70
2022-09-23T07:56:00.021Z,66.50
2022-09-23T07:58:26.655Z,66.50
2022-09-23T08:00:54.075Z,66.10
2022-09-23T08:03:21.202Z,66.10
2022-09-23T08:05:48.107Z,65.90
2022-09-23T08:08:14.701Z,66.50
2022-09-23T08:10:41.321Z,66.50
2022-09-23T08:13:07.978Z,66.60
2022-09-23T08:15:34.786Z,66.20
2022-09-23T08:18:01.501Z,66.30
2022-09-23T08:20:47.832Z,65.90
2022-09-23T08:23:16.180Z,65.20
2022-09-23T08:25:45.969Z,66.30
2022-09-23T08:28:18.568Z,66.30
2022-09-23T08:30:48.831Z,63.30
2022-09-23T08:33:19.602Z,63.40
2022-09-23T08:35:49.311Z,66.60
2022-09-23T08:38:15.975Z,65.90
2022-09-23T08:40:43.823Z,66.20
2022-09-23T08:43:19.238Z,66.60
2022-09-23T08:45:46.305Z,64.10
2022-09-23T08:48:15.666Z,67.00
2022-09-23T08:50:43.726Z,66.70
2022-09-23T08:53:25.339Z,67.10
2022-09-23T08:55:53.802Z,64.30
2022-09-23T08:58:35.496Z,67.00
2022-09-23T09:01:10.093Z,64.00
2022-09-23T09:03:39.998Z,64.30
2022-09-23T09:06:07.219Z,67.20
2022-09-23T09:08:35.634Z,66.90
2022-09-23T09:11:03.077Z,67.00
2022-09-23T09:13:31.849Z,66.60
2022-09-23T09:16:11.387Z,66.90
2022-09-23T09:18:45.136Z,64.50
2022-09-23T09:21:12.903Z,67.00
2022-09-23T09:23:39.816Z,67.00
2022-09-23T09:26:06.603Z,66.90
2022-09-23T09:28:35.721Z,67.10
2022-09-23T09:31:22.811Z,67.00
2022-09-23T09:33:57.938Z,66.80
2022-09-23T09:36:38.226Z,64.20
2022-09-23T09:39:04.968Z,66.80
2022-09-23T09:41:31.513Z,66.90
2022-09-23T09:44:00.797Z,67.20
2022-09-23T09:46:45.144Z,67.60
2022-09-23T09:49:23.190Z,64.20
2022-09-23T09:52:26.371Z,67.20
2022-09-23T09:54:53.118Z,64.20
2022-09-23T09:57:35.064Z,66.70
2022-09-23T10:00:21.467Z,66.90
2022-09-23T10:02:55.654Z,63.30
2022-09-23T10:05:25.847Z,63.70
2022-09-23T10:07:53.148Z,66.50
2022-09-23T10:10:32.300Z,66.50
2022-09-23T10:13:13.391Z,66.70
2022-09-23T10:15:44.964Z,67.10
2022-09-23T10:18:24.708Z,64.40
2022-09-23T10:20:51.826Z,65.00
2022-09-23T10:23:22.109Z,66.60
2022-09-23T10:26:00.107Z,67.40
2022-09-23T10:28:30.673Z,67.20
2022-09-23T10:31:04.915Z,67.50
2022-09-23T10:33:31.544Z,65.30
2022-09-23T10:35:58.172Z,68.50
2022-09-23T10:38:25.031Z,68.20
2022-09-23T10:41:11.440Z,67.80
2022-09-23T10:43:56.501Z,67.70
2022-09-23T10:46:38.302Z,65.40
2022-09-23T10:49:12.227Z,65.10
2022-09-23T10:51:39.549Z,65.20
2022-09-23T10:54:18.403Z,67.70
2022-09-23T10:56:50.717Z,65.50
2022-09-23T10:59:27.111Z,65.50
2022-09-23T11:02:02.135Z,65.80
2022-09-23T11:04:28.803Z,66.10
2022-09-23T11:06:58.441Z,68.30
2022-09-23T11:09:40.481Z,66.20
2022-09-23T11:12:14.315Z,66.20
2022-09-23T11:14:54.869Z,68.70
2022-09-23T11:17:30.675Z,66.80
2022-09-23T11:20:06.434Z,69.50
2022-09-23T11:22:41.190Z,68.90
2022-09-23T11:25:10.882Z,71.60
2022-09-23T11:27:57.064Z,68.40
2022-09-23T11:30:26.878Z,68.10
2022-09-23T11:33:04.483Z,70.50
2022-09-23T11:35:34.068Z,67.70
2022-09-23T11:38:05.146Z,70.30
2022-09-23T11:40:33.019Z,70.30
2022-09-23T11:43:15.615Z,70.20
2022-09-23T11:45:51.668Z,67.60
2022-09-23T11:48:22.616Z,67.60
2022-09-23T11:50:59.972Z,70.10
2022-09-23T11:53:38.883Z,70.30
2022-09-23T11:56:23.633Z,67.70
2022-09-23T11:59:03.141Z,67.60
2022-09-23T12:01:38.224Z,67.40
2022-09-23T12:04:18.395Z,67.50
2022-09-23T12:06:49.636Z,69.90
2022-09-23T12:09:35.741Z,69.90
2022-09-23T12:12:27.239Z,70.20
2022-09-23T12:14:59.864Z,67.10
2022-09-23T12:17:38.721Z,67.10
2022-09-23T12:20:16.645Z,67.00
2022-09-23T12:22:49.577Z,69.50
2022-09-23T12:25:34.719Z,67.00
2022-09-23T12:28:06.329Z,66.80
2022-09-23T12:30:35.270Z,66.70
2022-09-23T12:33:25.576Z,69.40
2022-09-23T12:35:53.934Z,66.60
2022-09-23T12:38:22.894Z,69.20
2022-09-23T12:40:51.120Z,69.20
2022-09-23T12:43:19.441Z,69.10
2022-09-23T12:45:46.164Z,69.10
2022-09-23T12:48:15.566Z,70.00
2022-09-23T12:50:48.465Z,67.50
2022-09-23T12:53:33.379Z,67.40
2022-09-23T12:56:20.208Z,67.30
2022-09-23T12:58:46.809Z,70.50
2022-09-23T13:01:19.306Z,69.70
2022-09-23T13:04:05.705Z,66.90
2022-09-23T13:06:39.335Z,69.80
2022-09-23T13:09:24.884Z,69.70
2022-09-23T13:11:53.051Z,67.10
2022-09-23T13:14:26.747Z,69.90
2022-09-23T13:16:55.285Z,69.40
2022-09-23T13:19:27.846Z,69.20
2022-09-23T13:21:54.443Z,66.20
2022-09-23T13:24:31.158Z,69.00
2022-09-23T13:27:06.661Z,66.30
2022-09-23T13:29:52.111Z,66.10
2022-09-23T13:32:20.191Z,66.00
2022-09-23T13:34:52.887Z,68.90
2022-09-23T13:37:24.012Z,68.70
2022-09-23T13:39:51.006Z,68.90
2022-09-23T13:42:28.230Z,68.50
2022-09-23T13:44:57.421Z,66.00
2022-09-23T13:47:25.783Z,68.40
2022-09-23T13:49:52.940Z,68.50
2022-09-23T13:52:25.153Z,68.40
2022-09-23T13:54:51.855Z,66.10
2022-09-23T13:57:36.888Z,68.30
2022-09-23T14:00:20.935Z,66.30
2022-09-23T14:02:47.668Z,66.20
2022-09-23T14:05:21.850Z,68.80
2022-09-23T14:07:49.408Z,68.40
2022-09-23T14:10:21.056Z,69.20
2022-09-23T14:12:49.419Z,66.60
2022-09-23T14:15:17.503Z,69.40
2022-09-23T14:17:50.963Z,69.50
2022-09-23T14:20:19.808Z,67.30
2022-09-23T14:22:46.388Z,70.20
2022-09-23T14:25:17.100Z,69.80
2022-09-23T14:27:44.343Z,67.10
2022-09-23T14:30:14.703Z,69.70
2022-09-23T14:32:41.835Z,67.20
2022-09-23T14:35:22.093Z,69.80
2022-09-23T14:38:09.148Z,67.20
2022-09-23T14:40:49.775Z,69.90
2022-09-23T14:43:26.906Z,66.90
2022-09-23T14:45:57.659Z,69.40
2022-09-23T14:48:24.323Z,66.90
2022-09-23T14:50:58.341Z,68.80
2022-09-23T14:53:33.230Z,66.80
2022-09-23T14:56:05.789Z,66.70
2022-09-23T14:58:49.455Z,66.50
2022-09-23T15:01:30.837Z,66.70
2022-09-23T15:03:57.906Z,66.70
2022-09-23T15:06:24.863Z,69.00
2022-09-23T15:08:52.988Z,68.90
2022-09-23T15:11:21.356Z,69.20
2022-09-23T15:13:52.705Z,69.10
2022-09-23T15:16:27.506Z,66.50
2022-09-23T15:18:55.769Z,66.50
2022-09-23T15:21:23.276Z,68.70
2022-09-23T15:23:51.826Z,68.90
2022-09-23T15:26:18.465Z,69.00
2022-09-23T15:28:45.481Z,68.80
2022-09-23T15:31:12.879Z,69.10
2022-09-23T15:33:39.608Z,69.20
2022-09-23T15:36:06.261Z,69.00
2022-09-23T15:38:32.976Z,69.00
2022-09-23T15:40:59.647Z,68.80
2022-09-23T15:43:26.890Z,69.00
2022-09-23T15:45:57.136Z,69.10
2022-09-23T15:48:32.587Z,66.70
2022-09-23T15:51:03.186Z,66.70
2022-09-23T15:53:29.945Z,69.10
2022-09-23T15:55:58.519Z,68.80
2022-09-23T15:58:27.836Z,69.20
2022-09-23T16:00:56.873Z,67.30
2022-09-23T16:03:28.624Z,69.30
2022-09-23T16:05:58.107Z,69.60
2022-09-23T16:08:25.787Z,69.60
2022-09-23T16:10:53.328Z,70.00
2022-09-23T16:13:19.979Z,70.50
2022-09-23T16:15:46.570Z,70.30
2022-09-23T16:18:13.598Z,70.60
2022-09-23T16:20:44.650Z,70.80
2022-09-23T16:23:14.293Z,67.90
2022-09-23T16:25:40.939Z,67.90
2022-09-23T16:28:07.706Z,70.10
2022-09-23T16:30:34.690Z,70.40
2022-09-23T16:33:02.016Z,70.90
2022-09-23T16:35:31.270Z,70.50
2022-09-23T16:37:57.877Z,70.60
2022-09-23T16:40:24.637Z,70.10
2022-09-23T16:42:52.324Z,70.60
2022-09-23T16:45:22.236Z,70.30
2022-09-23T16:47:51.038Z,69.90
2022-09-23T16:50:20.478Z,69.80
2022-09-23T16:52:47.303Z,70.10
2022-09-23T16:55:14.734Z,69.70
2022-09-23T16:57:41.729Z,69.90
2022-09-23T17:00:48.363Z,70.00
2022-09-23T17:03:33.391Z,69.20
2022-09-23T17:06:03.370Z,68.00
2022-09-23T17:08:31.217Z,70.00
2022-09-23T17:10:58.777Z,70.10
2022-09-23T17:13:26.396Z,70.20
2022-09-23T17:15:53.616Z,70.30
2022-09-23T17:18:20.737Z,70.30
2022-09-23T17:20:57.907Z,70.30
2022-09-23T17:23:26.502Z,70.40
2022-09-23T17:25:53.352Z,70.10
2022-09-23T17:28:20.392Z,70.10
2022-09-23T17:30:46.968Z,70.10
2022-09-23T17:33:13.727Z,70.20
2022-09-23T17:35:41.144Z,70.00
2022-09-23T17:38:07.774Z,70.10
2022-09-23T17:40:38.421Z,69.90
2022-09-23T17:43:05.240Z,70.10
2022-09-23T17:45:31.899Z,69.80
2022-09-23T17:47:58.514Z,70.10
2022-09-23T17:50:25.116Z,70.00
2022-09-23T17:52:51.710Z,70.00
2022-09-23T17:55:19.134Z,69.80
2022-09-23T17:57:50.280Z,69.90
2022-09-23T18:00:16.953Z,70.00
2022-09-23T18:02:43.539Z,69.20
2022-09-23T18:05:10.227Z,69.60
2022-09-23T18:07:36.809Z,69.40
2022-09-23T18:10:03.509Z,69.80
2022-09-23T18:12:30.132Z,69.40
2022-09-23T18:14:56.707Z,69.60
2022-09-23T18:17:23.321Z,69.70
2022-09-23T18:19:50.442Z,69.60
2022-09-23T18:22:17.098Z,69.80
2022-09-23T18:24:43.977Z,69.80
2022-09-23T18:27:10.589Z,69.80
2022-09-23T18:29:37.202Z,70.00
2022-09-23T18:32:03.893Z,69.80
2022-09-23T18:34:30.657Z,69.90
2022-09-23T18:36:57.438Z,69.60
2022-09-23T18:39:24.032Z,69.90
2022-09-23T18:41:51.024Z,70.10
2022-09-23T18:44:18.488Z,69.90
2022-09-23T18:46:45.084Z,70.00
2022-09-23T18:49:30.510Z,70.10
2022-09-23T18:51:58.007Z,68.00
2022-09-23T18:54:25.461Z,70.20
2022-09-23T18:56:52.866Z,70.40
2022-09-23T18:59:20.942Z,70.20
2022-09-23T19:01:48.993Z,70.40
2022-09-23T19:04:19.461Z,70.20
2022-09-23T19:06:46.291Z,67.70
2022-09-23T19:09:14.346Z,70.10
2022-09-23T19:11:41.347Z,70.40
2022-09-23T19:14:11.258Z,70.40
2022-09-23T19:16:39.040Z,70.30
2022-09-23T19:19:05.952Z,71.20
2022-09-23T19:21:33.399Z,70.20
2022-09-23T19:24:04.646Z,70.50
2022-09-23T19:26:33.539Z,70.50
2022-09-23T19:29:00.934Z,70.80
2022-09-23T19:31:29.759Z,70.60
2022-09-23T19:33:57.936Z,70.60
2022-09-23T19:36:29.119Z,70.60
2022-09-23T19:38:56.625Z,70.80
2022-09-23T19:41:23.757Z,70.60
2022-09-23T19:43:52.065Z,70.60
2022-09-23T19:46:19.388Z,70.90
2022-09-23T19:48:46.827Z,70.70
2022-09-23T19:51:13.444Z,70.60
2022-09-23T19:53:41.458Z,70.60
2022-09-23T19:56:08.640Z,70.80
2022-09-23T19:58:35.483Z,70.70
2022-09-23T20:01:07.192Z,70.70
2022-09-23T20:03:33.842Z,70.90
2022-09-23T20:06:00.494Z,71.10
2022-09-23T20:08:27.201Z,70.80
2022-09-23T20:10:53.914Z,71.00
2022-09-23T20:13:22.271Z,70.60
2022-09-23T20:15:49.061Z,70.70
2022-09-23T20:18:15.795Z,70.60
2022-09-23T20:20:42.452Z,70.80
2022-09-23T20:23:09.037Z,70.80
2022-09-23T20:25:54.392Z,71.00
2022-09-23T20:28:22.377Z,68.60
2022-09-23T20:30:49.055Z,70.80
2022-09-23T20:33:15.725Z,70.80
2022-09-23T20:35:44.014Z,70.60
2022-09-23T20:38:10.623Z,70.70
2022-09-23T20:40:38.389Z,70.50
2022-09-23T20:43:05.153Z,70.90
2022-09-23T20:45:32.001Z,70.60
2022-09-23T20:48:03.232Z,70.90
2022-09-23T20:50:30.220Z,68.90
2022-09-23T20:52:57.575Z,71.10
2022-09-23T20:55:24.190Z,71.20
2022-09-23T20:57:50.762Z,71.60
2022-09-23T21:00:18.338Z,71.70
2022-09-23T21:02:44.993Z,71.30
2022-09-23T21:05:11.615Z,71.30
2022-09-23T21:07:38.582Z,71.00
2022-09-23T21:10:07.307Z,71.60
2022-09-23T21:12:35.127Z,70.80
2022-09-23T21:15:02.078Z,71.70
2022-09-23T21:17:28.685Z,71.60
2022-09-23T21:19:55.278Z,71.60
2022-09-23T21:22:22.632Z,71.60
2022-09-23T21:25:27.051Z,71.20
2022-09-23T21:27:37.113Z,71.30
2022-09-23T21:30:04.417Z,71.50
2022-09-23T21:32:31.247Z,71.60
2022-09-23T21:34:57.860Z,71.10
2022-09-23T21:37:25.470Z,71.30
2022-09-23T21:40:10.936Z,71.50
2022-09-23T21:42:37.602Z,69.00
2022-09-23T21:45:05.118Z,70.90
2022-09-23T21:47:32.351Z,70.60
2022-09-23T21:49:58.928Z,71.40
2022-09-23T21:52:25.533Z,71.60
2022-09-23T21:54:52.162Z,71.60
2022-09-23T21:57:18.781Z,71.50
2022-09-23T21:59:45.394Z,71.60
2022-09-23T22:02:11.972Z,71.60
2022-09-23T22:04:38.697Z,71.50
2022-09-23T22:07:05.330Z,71.30
2022-09-23T22:09:31.944Z,71.60
2022-09-23T22:12:09.744Z,71.80
2022-09-23T22:14:36.883Z,69.40
2022-09-23T22:17:04.423Z,72.20
2022-09-23T22:19:44.139Z,72.40
2022-09-23T22:22:13.989Z,69.10
2022-09-23T22:24:40.979Z,72.20
2022-09-23T22:27:08.463Z,72.60
2022-09-23T22:29:53.740Z,72.80
2022-09-23T22:32:40.464Z,70.20
2022-09-23T22:35:08.149Z,71.00
2022-09-23T22:37:35.631Z,71.40
2022-09-23T22:40:03.287Z,72.00
2022-09-23T22:42:30.929Z,72.30
2022-09-23T22:44:57.539Z,72.40
2022-09-23T22:47:24.222Z,71.60
2022-09-23T22:49:54.485Z,72.30
2022-09-23T22:52:24.266Z,72.00
2022-09-23T22:54:51.742Z,71.70
2022-09-23T22:57:19.381Z,71.80
2022-09-23T22:59:48.024Z,71.70
2022-09-23T23:02:16.301Z,72.10
2022-09-23T23:04:45.163Z,72.40
2022-09-23T23:07:15.572Z,71.60
2022-09-23T23:09:42.199Z,71.50
2022-09-23T23:12:08.850Z,71.10
2022-09-23T23:14:36.102Z,70.80
2022-09-23T23:17:07.153Z,71.20
2022-09-23T23:19:34.974Z,71.20
2022-09-23T23:22:01.638Z,71.20
2022-09-23T23:24:28.468Z,70.80
2022-09-23T23:26:55.128Z,70.90
2022-09-23T23:29:21.711Z,71.00
2022-09-23T23:31:48.389Z,71.10
2022-09-23T23:34:19.706Z,71.00
2022-09-23T23:36:46.804Z,68.10
2022-09-23T23:39:13.766Z,71.00
2022-09-23T23:41:41.555Z,71.00
2022-09-23T23:44:08.581Z,71.20
2022-09-23T23:46:37.095Z,71.10
2022-09-23T23:49:04.393Z,71.10
2022-09-23T23:51:31.023Z,71.40
2022-09-23T23:53:58.686Z,71.40
2022-09-23T23:56:26.259Z,72.30
2022-09-23T23:58:56.611Z,72.30
